Observation data for Plainview on 02/12/2018      Previous  Date  Next       Current Mesonet Observations  Soil Data  Daily Summary Page  Observations in Plain Language
KPVS 120600Z 18004KT M05/M15 A3021 RMK A01 T10451145  RH  046%=      5-min Rain = 0
KPVS 120605Z 17005KT M05/M15 A3021 RMK A01 T10491146  RH  047%=      5-min Rain = 0
KPVS 120610Z 17004KT M05/M15 A3021 RMK A01 T10511147  RH  048%=      5-min Rain = 0
KPVS 120615Z 17005KT M05/M15 A3021 RMK A01 T10511146  RH  048%=      5-min Rain = 0
KPVS 120620Z 17005KT M05/M15 A3021 RMK A01 T10511146  RH  048%=      5-min Rain = 0
KPVS 120625Z 17004KT M05/M15 A3021 RMK A01 T10521145  RH  048%=      5-min Rain = 0
KPVS 120630Z 17004KT M05/M15 A3022 RMK A01 T10511145  RH  048%=      5-min Rain = 0
KPVS 120635Z 18005KT M05/M14 A3022 RMK A01 T10511144  RH  049%=      5-min Rain = 0
KPVS 120640Z 17005KT M05/M14 A3022 RMK A01 T10501144  RH  049%=      5-min Rain = 0
KPVS 120645Z 16003KT M05/M14 A3022 RMK A01 T10511144  RH  049%=      5-min Rain = 0
KPVS 120650Z 17003KT M05/M14 A3022 RMK A01 T10521144  RH  049%=      5-min Rain = 0
KPVS 120655Z 16003KT M05/M15 A3022 RMK A01 T10531145  RH  049%=      5-min Rain = 0
KPVS 120700Z 16003KT M05/M15 A3022 RMK A01 T10541145  RH  050%=      5-min Rain = 0
KPVS 120705Z 16003KT M05/M15 A3022 RMK A01 T10541145  RH  050%=      5-min Rain = 0
KPVS 120710Z 18002KT M05/M15 A3022 RMK A01 T10541145  RH  050%=      5-min Rain = 0
KPVS 120715Z 17003KT M06/M15 A3022 RMK A01 T10551145  RH  050%=      5-min Rain = 0
KPVS 120720Z 18003KT M06/M15 A3023 RMK A01 T10561146  RH  050%=      5-min Rain = 0
KPVS 120725Z 18003KT M06/M15 A3023 RMK A01 T10561146  RH  050%=      5-min Rain = 0
KPVS 120730Z 19003KT M06/M15 A3023 RMK A01 T10561146  RH  050%=      5-min Rain = 0
KPVS 120735Z 18003KT M06/M15 A3023 RMK A01 T10561146  RH  050%=      5-min Rain = 0
KPVS 120740Z 19002KT M06/M15 A3023 RMK A01 T10571147  RH  050%=      5-min Rain = 0
KPVS 120745Z 15002KT M06/M15 A3024 RMK A01 T10591147  RH  051%=      5-min Rain = 0
KPVS 120750Z 16002KT M06/M15 A3024 RMK A01 T10601148  RH  051%=      5-min Rain = 0
KPVS 120755Z 18002KT M06/M15 A3024 RMK A01 T10631150  RH  051%=      5-min Rain = 0
KPVS 120800Z 20002KT M07/M15 A3025 RMK A01 T10681153  RH  052%=      5-min Rain = 0
KPVS 120805Z 19002KT M07/M15 A3025 RMK A01 T10741154  RH  054%=      5-min Rain = 0
KPVS 120810Z 17002KT M07/M15 A3025 RMK A01 T10731150  RH  055%=      5-min Rain = 0
KPVS 120815Z 15002KT M07/M15 A3024 RMK A01 T10731150  RH  055%=      5-min Rain = 0
KPVS 120820Z 12001KT M07/M15 A3024 RMK A01 T10701148  RH  055%=      5-min Rain = 0
KPVS 120825Z 12000KT M07/M15 A3024 RMK A01 T10701150  RH  054%=      5-min Rain = 0
KPVS 120830Z 13001KT M07/M15 A3024 RMK A01 T10711152  RH  054%=      5-min Rain = 0
KPVS 120835Z 13001KT M08/M15 A3024 RMK A01 T10751152  RH  055%=      5-min Rain = 0
KPVS 120840Z 14000KT M08/M15 A3024 RMK A01 T10761152  RH  055%=      5-min Rain = 0
KPVS 120845Z 14000KT M08/M15 A3024 RMK A01 T10761150  RH  056%=      5-min Rain = 0
KPVS 120850Z 15002KT M08/M15 A3024 RMK A01 T10751150  RH  056%=      5-min Rain = 0
KPVS 120855Z 16002KT M08/M15 A3023 RMK A01 T10751152  RH  055%=      5-min Rain = 0
KPVS 120900Z 16003KT M07/M15 A3023 RMK A01 T10741151  RH  055%=      5-min Rain = 0
KPVS 120905Z 17002KT M08/M15 A3023 RMK A01 T10751153  RH  054%=      5-min Rain = 0
KPVS 120910Z 19001KT M08/M15 A3023 RMK A01 T10761152  RH  055%=      5-min Rain = 0
KPVS 120915Z 17002KT M08/M15 A3023 RMK A01 T10751150  RH  056%=      5-min Rain = 0
KPVS 120920Z 18003KT M08/M15 A3023 RMK A01 T10771153  RH  055%=      5-min Rain = 0
KPVS 120925Z 18003KT M08/M15 A3023 RMK A01 T10811154  RH  056%=      5-min Rain = 0
KPVS 120930Z 20002KT M09/M16 A3023 RMK A01 T10881160  RH  057%=      5-min Rain = 0
KPVS 120935Z 23002KT M10/M16 A3023 RMK A01 T10971163  RH  060%=      5-min Rain = 0
KPVS 120940Z 26002KT M10/M16 A3024 RMK A01 T10961158  RH  062%=      5-min Rain = 0
KPVS 120945Z 22002KT M09/M15 A3024 RMK A01 T10911151  RH  063%=      5-min Rain = 0
KPVS 120950Z 21003KT M08/M15 A3024 RMK A01 T10791145  RH  060%=      5-min Rain = 0
KPVS 120955Z 21003KT M07/M15 A3024 RMK A01 T10741146  RH  057%=      5-min Rain = 0
KPVS 121000Z 18002KT M07/M15 A3024 RMK A01 T10731146  RH  057%=      5-min Rain = 0
KPVS 121005Z 17003KT M07/M14 A3024 RMK A01 T10701144  RH  057%=      5-min Rain = 0
KPVS 121010Z 17003KT M07/M14 A3024 RMK A01 T10671141  RH  057%=      5-min Rain = 0
KPVS 121015Z 17005KT M06/M14 A3024 RMK A01 T10641139  RH  056%=      5-min Rain = 0
KPVS 121020Z 18004KT M06/M14 A3024 RMK A01 T10611140  RH  055%=      5-min Rain = 0
KPVS 121025Z 19003KT M06/M14 A3024 RMK A01 T10641143  RH  054%=      5-min Rain = 0
KPVS 121030Z 18002KT M07/M15 A3025 RMK A01 T10671145  RH  055%=      5-min Rain = 0
KPVS 121035Z 20002KT M07/M15 A3025 RMK A01 T10711147  RH  055%=      5-min Rain = 0
KPVS 121040Z 19002KT M08/M15 A3026 RMK A01 T10761148  RH  057%=      5-min Rain = 0
KPVS 121045Z 18003KT M07/M15 A3025 RMK A01 T10741145  RH  058%=      5-min Rain = 0
KPVS 121050Z 17003KT M07/M14 A3025 RMK A01 T10711144  RH  057%=      5-min Rain = 0
KPVS 121055Z 19002KT M07/M15 A3025 RMK A01 T10711145  RH  056%=      5-min Rain = 0
KPVS 121100Z 18003KT M07/M15 A3025 RMK A01 T10721146  RH  057%=      5-min Rain = 0
KPVS 121105Z 18003KT M07/M14 A3025 RMK A01 T10721144  RH  057%=      5-min Rain = 0
KPVS 121110Z 17002KT M07/M15 A3025 RMK A01 T10721145  RH  057%=      5-min Rain = 0
KPVS 121115Z 18002KT M07/M15 A3025 RMK A01 T10741146  RH  057%=      5-min Rain = 0
KPVS 121120Z 17004KT M07/M14 A3025 RMK A01 T10731144  RH  058%=      5-min Rain = 0
KPVS 121125Z 16004KT M07/M14 A3025 RMK A01 T10721142  RH  058%=      5-min Rain = 0
KPVS 121130Z 15005KT M07/M14 A3024 RMK A01 T10681138  RH  058%=      5-min Rain = 0
KPVS 121135Z 15005KT M06/M14 A3024 RMK A01 T10621135  RH  057%=      5-min Rain = 0
KPVS 121140Z 16005KT M06/M14 A3025 RMK A01 T10591135  RH  056%=      5-min Rain = 0
KPVS 121145Z 16005KT M06/M14 A3025 RMK A01 T10591136  RH  055%=      5-min Rain = 0
KPVS 121150Z 15005KT M06/M14 A3025 RMK A01 T10591136  RH  055%=      5-min Rain = 0
KPVS 121155Z 14005KT M06/M14 A3025 RMK A01 T10591137  RH  055%=      5-min Rain = 0
KPVS 121200Z 13005KT M06/M14 A3024 RMK A01 T10601137  RH  055%=      5-min Rain = 0
KPVS 121205Z 13004KT M06/M14 A3024 RMK A01 T10621139  RH  056%=      5-min Rain = 0
KPVS 121210Z 13004KT M07/M14 A3024 RMK A01 T10691142  RH  057%=      5-min Rain = 0
KPVS 121215Z 13003KT M08/M14 A3025 RMK A01 T10751144  RH  058%=      5-min Rain = 0
KPVS 121220Z 14004KT M08/M14 A3026 RMK A01 T10751143  RH  059%=      5-min Rain = 0
KPVS 121225Z 14004KT M07/M14 A3026 RMK A01 T10731143  RH  058%=      5-min Rain = 0
KPVS 121230Z 13004KT M07/M14 A3026 RMK A01 T10711142  RH  058%=      5-min Rain = 0
KPVS 121235Z 13004KT M07/M14 A3026 RMK A01 T10701142  RH  058%=      5-min Rain = 0
KPVS 121240Z 14003KT M07/M14 A3027 RMK A01 T10701141  RH  058%=      5-min Rain = 0
KPVS 121245Z 13004KT M07/M14 A3027 RMK A01 T10691140  RH  058%=      5-min Rain = 0
KPVS 121250Z 14004KT M07/M14 A3027 RMK A01 T10671139  RH  057%=      5-min Rain = 0
KPVS 121255Z 14003KT M07/M14 A3027 RMK A01 T10651139  RH  057%=      5-min Rain = 0
KPVS 121300Z 15005KT M06/M14 A3027 RMK A01 T10641140  RH  056%=      5-min Rain = 0
KPVS 121305Z 15006KT M06/M14 A3027 RMK A01 T10631140  RH  055%=      5-min Rain = 0
KPVS 121310Z 15006KT M06/M14 A3027 RMK A01 T10631140  RH  055%=      5-min Rain = 0
KPVS 121315Z 15006KT M06/M14 A3027 RMK A01 T10621139  RH  055%=      5-min Rain = 0
KPVS 121320Z 14007KT M06/M14 A3027 RMK A01 T10601138  RH  055%=      5-min Rain = 0
KPVS 121325Z 14005KT M06/M14 A3028 RMK A01 T10591137  RH  055%=      5-min Rain = 0
KPVS 121330Z 14005KT M06/M14 A3028 RMK A01 T10591138  RH  054%=      5-min Rain = 0
KPVS 121335Z 12005KT M06/M14 A3028 RMK A01 T10601139  RH  054%=      5-min Rain = 0
KPVS 121340Z 12005KT M06/M14 A3028 RMK A01 T10631142  RH  054%=      5-min Rain = 0
KPVS 121345Z 12005KT M07/M15 A3028 RMK A01 T10661145  RH  054%=      5-min Rain = 0
KPVS 121350Z 13005KT M07/M15 A3028 RMK A01 T10671145  RH  055%=      5-min Rain = 0
KPVS 121355Z 12005KT M06/M14 A3028 RMK A01 T10641143  RH  055%=      5-min Rain = 0
KPVS 121400Z 12005KT M06/M14 A3028 RMK A01 T10611140  RH  054%=      5-min Rain = 0
KPVS 121405Z 13004KT M06/M14 A3028 RMK A01 T10591140  RH  053%=      5-min Rain = 0
KPVS 121410Z 12004KT M06/M14 A3028 RMK A01 T10581139  RH  054%=      5-min Rain = 0
KPVS 121415Z 12004KT M06/M14 A3028 RMK A01 T10581137  RH  054%=      5-min Rain = 0
KPVS 121420Z 13006KT M06/M13 A3028 RMK A01 T10551134  RH  054%=      5-min Rain = 0
KPVS 121425Z 12006KT M05/M13 A3028 RMK A01 T10501132  RH  053%=      5-min Rain = 0
KPVS 121430Z 13006KT M05/M13 A3028 RMK A01 T10451130  RH  052%=      5-min Rain = 0
KPVS 121435Z 13006KT M04/M13 A3029 RMK A01 T10371128  RH  050%=      5-min Rain = 0
KPVS 121440Z 13007KT M03/M13 A3029 RMK A01 T10321125  RH  049%=      5-min Rain = 0
KPVS 121445Z 13008KT M03/M12 A303 RMK A01 T10281123  RH  048%=      5-min Rain = 0
KPVS 121450Z 13010KT M03/M13 A303 RMK A01 T10271125  RH  048%=      5-min Rain = 0
KPVS 121455Z 13008KT M03/M13 A303 RMK A01 T10281125  RH  048%=      5-min Rain = 0
KPVS 121500Z 13009KT M03/M13 A303 RMK A01 T10281125  RH  048%=      5-min Rain = 0
KPVS 121505Z 13009KT M03/M13 A303 RMK A01 T10281125  RH  048%=      5-min Rain = 0
KPVS 121510Z 14008KT M03/M13 A303 RMK A01 T10281125  RH  048%=      5-min Rain = 0
KPVS 121515Z 14008KT M03/M12 A3031 RMK A01 T10271123  RH  048%=      5-min Rain = 0
KPVS 121520Z 13008KT M02/M12 A3031 RMK A01 T10191121  RH  046%=      5-min Rain = 0
KPVS 121525Z 14010KT M02/M12 A3031 RMK A01 T10181122  RH  046%=      5-min Rain = 0
KPVS 121530Z 13010KT M02/M12 A3031 RMK A01 T10171122  RH  045%=      5-min Rain = 0
KPVS 121535Z 13009KT M02/M12 A3031 RMK A01 T10151122  RH  045%=      5-min Rain = 0
KPVS 121540Z 14009KT M02/M12 A3031 RMK A01 T10151124  RH  044%=      5-min Rain = 0
KPVS 121545Z 12010KT M02/M12 A3031 RMK A01 T10161124  RH  044%=      5-min Rain = 0
KPVS 121550Z 13010KT M02/M12 A303 RMK A01 T10161124  RH  044%=      5-min Rain = 0
KPVS 121555Z 14011KT M01/M13 A3031 RMK A01 T10131126  RH  043%=      5-min Rain = 0
KPVS 121600Z 14010KT M01/M12 A3031 RMK A01 T10081124  RH  042%=      5-min Rain = 0
KPVS 121605Z 14009KT M00/M12 A3031 RMK A01 T10041123  RH  041%=      5-min Rain = 0
KPVS 121610Z 13011KT M00/M12 A3031 RMK A01 T10031124  RH  040%=      5-min Rain = 0
KPVS 121615Z 14011KT M00/M12 A3031 RMK A01 T10011123  RH  040%=      5-min Rain = 0
KPVS 121620Z 14010KT 00/M12 A3031 RMK A01 T00041123  RH  038%=      5-min Rain = 0
KPVS 121625Z 14010G16KT 00/12 A3031 RMK A01 T00-00-124  RH  039%=      5-min Rain = 0
KPVS 121630Z 12009KT 01/M12 A3031 RMK A01 T00051121  RH  039%=      5-min Rain = 0
KPVS 121635Z 13010G15KT 00/M12 A303 RMK A01 T00041122  RH  039%=      5-min Rain = 0
KPVS 121640Z 13012KT 00/M13 A303 RMK A01 T00031126  RH  038%=      5-min Rain = 0
KPVS 121645Z 13010KT 01/M13 A303 RMK A01 T00071125  RH  037%=      5-min Rain = 0
KPVS 121650Z 14010KT 01/M13 A303 RMK A01 T00121125  RH  036%=      5-min Rain = 0
KPVS 121655Z 14010KT 01/M13 A303 RMK A01 T00121126  RH  035%=      5-min Rain = 0
KPVS 121700Z 12009G15KT 01/M13 A303 RMK A01 T00121126  RH  035%=      5-min Rain = 0
KPVS 121705Z 13011KT 01/M13 A303 RMK A01 T00101127  RH  036%=      5-min Rain = 0
KPVS 121710Z 12010KT 02/M12 A303 RMK A01 T00171123  RH  035%=      5-min Rain = 0
KPVS 121715Z 11008G13KT 02/M13 A303 RMK A01 T00161125  RH  035%=      5-min Rain = 0
KPVS 121720Z 12008KT 02/M13 A3029 RMK A01 T00181125  RH  034%=      5-min Rain = 0
KPVS 121725Z 12010G15KT 02/M13 A3029 RMK A01 T00221126  RH  033%=      5-min Rain = 0
KPVS 121730Z 12010KT 03/M13 A3029 RMK A01 T00281127  RH  031%=      5-min Rain = 0
KPVS 121735Z 13010KT 03/M13 A3029 RMK A01 T00301133  RH  029%=      5-min Rain = 0
KPVS 121740Z 13012G17KT 03/M14 A3029 RMK A01 T00321140  RH  027%=      5-min Rain = 0
KPVS 121745Z 13011KT 03/M14 A3029 RMK A01 T00331135  RH  028%=      5-min Rain = 0
KPVS 121750Z 12011G17KT 04/M14 A3028 RMK A01 T00351138  RH  027%=      5-min Rain = 0
KPVS 121755Z 13010G16KT 04/M14 A3028 RMK A01 T00361141  RH  027%=      5-min Rain = 0
KPVS 121800Z 13011G17KT 04/M14 A3028 RMK A01 T00371140  RH  026%=      5-min Rain = 0
KPVS 121805Z 13012G17KT 04/M14 A3028 RMK A01 T00351141  RH  027%=      5-min Rain = 0
KPVS 121810Z 14010G15KT 04/M14 A3028 RMK A01 T00371139  RH  027%=      5-min Rain = 0
KPVS 121815Z 13009KT 04/M14 A3028 RMK A01 T00431138  RH  026%=      5-min Rain = 0
KPVS 121820Z 14010G15KT 05/M14 A3027 RMK A01 T00461142  RH  025%=      5-min Rain = 0
KPVS 121825Z 14012KT 04/M15 A3027 RMK A01 T00441147  RH  024%=      5-min Rain = 0
KPVS 121830Z 13011KT 04/M15 A3026 RMK A01 T00421146  RH  024%=      5-min Rain = 0
KPVS 121835Z 14011KT 05/M15 A3026 RMK A01 T00471145  RH  024%=      5-min Rain = 0
KPVS 121840Z 13012G18KT 05/M15 A3026 RMK A01 T00471146  RH  024%=      5-min Rain = 0
KPVS 121845Z 13011G18KT 05/M15 A3025 RMK A01 T00471149  RH  023%=      5-min Rain = 0
KPVS 121850Z 14012G19KT 05/M15 A3025 RMK A01 T00511149  RH  022%=      5-min Rain = 0
KPVS 121855Z 13010G15KT 05/M15 A3025 RMK A01 T00541146  RH  023%=      5-min Rain = 0
KPVS 121900Z 13013G19KT 06/M15 A3025 RMK A01 T00581149  RH  021%=      5-min Rain = 0
KPVS 121905Z 13012KT 06/M15 A3025 RMK A01 T00561148  RH  022%=      5-min Rain = 0
KPVS 121910Z 13010G18KT 06/M15 A3024 RMK A01 T00591149  RH  021%=      5-min Rain = 0
KPVS 121915Z 14013G18KT 06/M15 A3024 RMK A01 T00621154  RH  020%=      5-min Rain = 0
KPVS 121920Z 13012G18KT 06/M15 A3023 RMK A01 T00591153  RH  020%=      5-min Rain = 0
KPVS 121925Z 15014G19KT 06/M16 A3023 RMK A01 T00601158  RH  020%=      5-min Rain = 0
KPVS 121930Z 15011G17KT 06/M16 A3023 RMK A01 T00621157  RH  019%=      5-min Rain = 0
KPVS 121935Z 12013KT 06/M15 A3022 RMK A01 T00641154  RH  020%=      5-min Rain = 0
KPVS 121940Z 14013G18KT 06/M15 A3022 RMK A01 T00631154  RH  020%=      5-min Rain = 0
KPVS 121945Z 13015G22KT 06/M15 A3021 RMK A01 T00631154  RH  020%=      5-min Rain = 0
KPVS 121950Z 14014G20KT 06/M16 A3021 RMK A01 T00641155  RH  019%=      5-min Rain = 0
KPVS 121955Z 14011G18KT 07/M16 A302 RMK A01 T00721155  RH  018%=      5-min Rain = 0
KPVS 122000Z 14014KT 07/M16 A302 RMK A01 T00721158  RH  018%=      5-min Rain = 0
KPVS 122005Z 13015G20KT 07/M16 A3019 RMK A01 T00701155  RH  019%=      5-min Rain = 0
KPVS 122010Z 13013G19KT 07/M16 A3019 RMK A01 T00721156  RH  018%=      5-min Rain = 0
KPVS 122015Z 13014G20KT 07/M15 A3019 RMK A01 T00741153  RH  018%=      5-min Rain = 0
KPVS 122020Z 14013G19KT 07/M15 A3019 RMK A01 T00731153  RH  019%=      5-min Rain = 0
KPVS 122025Z 14013G20KT 08/M15 A3019 RMK A01 T00751152  RH  019%=      5-min Rain = 0
KPVS 122030Z 13013G20KT 07/M15 A3018 RMK A01 T00741151  RH  019%=      5-min Rain = 0
KPVS 122035Z 13012G18KT 08/M15 A3018 RMK A01 T00771148  RH  019%=      5-min Rain = 0
KPVS 122040Z 13014G19KT 08/M15 A3018 RMK A01 T00761149  RH  019%=      5-min Rain = 0
KPVS 122045Z 14013G18KT 08/M15 A3018 RMK A01 T00751148  RH  019%=      5-min Rain = 0
KPVS 122050Z 13014G20KT 07/M15 A3017 RMK A01 T00741147  RH  019%=      5-min Rain = 0
KPVS 122055Z 13013KT 08/M14 A3017 RMK A01 T00751144  RH  020%=      5-min Rain = 0
KPVS 122100Z 13013G19KT 08/M14 A3017 RMK A01 T00771143  RH  020%=      5-min Rain = 0
KPVS 122105Z 14013G20KT 08/M14 A3017 RMK A01 T00791143  RH  019%=      5-min Rain = 0
KPVS 122110Z 14014G20KT 08/M14 A3018 RMK A01 T00791142  RH  020%=      5-min Rain = 0
KPVS 122115Z 13013G18KT 08/M14 A3017 RMK A01 T00771140  RH  020%=      5-min Rain = 0
KPVS 122120Z 13014G21KT 08/M14 A3017 RMK A01 T00761139  RH  020%=      5-min Rain = 0
KPVS 122125Z 14012G17KT 08/M14 A3017 RMK A01 T00781137  RH  020%=      5-min Rain = 0
KPVS 122130Z 14014G20KT 08/M14 A3017 RMK A01 T00761136  RH  021%=      5-min Rain = 0
KPVS 122135Z 12011G17KT 08/M14 A3017 RMK A01 T00781135  RH  021%=      5-min Rain = 0
KPVS 122140Z 13014G24KT 08/M14 A3017 RMK A01 T00761135  RH  021%=      5-min Rain = 0
KPVS 122145Z 14013G20KT 08/M13 A3017 RMK A01 T00771134  RH  021%=      5-min Rain = 0
KPVS 122150Z 14013G20KT 08/M13 A3017 RMK A01 T00801132  RH  021%=      5-min Rain = 0
KPVS 122155Z 14014G21KT 08/M13 A3017 RMK A01 T00801132  RH  021%=      5-min Rain = 0
KPVS 122200Z 13014KT 08/M13 A3017 RMK A01 T00781132  RH  021%=      5-min Rain = 0
KPVS 122205Z 14013G19KT 08/M13 A3016 RMK A01 T00781130  RH  022%=      5-min Rain = 0
KPVS 122210Z 14013G18KT 08/M13 A3016 RMK A01 T00771127  RH  022%=      5-min Rain = 0
KPVS 122215Z 14014G20KT 07/M13 A3016 RMK A01 T00731128  RH  023%=      5-min Rain = 0
KPVS 122220Z 14014G19KT 07/M13 A3016 RMK A01 T00721128  RH  023%=      5-min Rain = 0
KPVS 122225Z 14013G18KT 07/M13 A3016 RMK A01 T00711127  RH  023%=      5-min Rain = 0
KPVS 122230Z 13013KT 07/M13 A3016 RMK A01 T00701127  RH  023%=      5-min Rain = 0
KPVS 122235Z 14013G20KT 07/M13 A3016 RMK A01 T00741125  RH  023%=      5-min Rain = 0
KPVS 122240Z 13014G20KT 07/M13 A3016 RMK A01 T00701125  RH  024%=      5-min Rain = 0
KPVS 122245Z 14011G17KT 07/M12 A3016 RMK A01 T00691124  RH  024%=      5-min Rain = 0
KPVS 122250Z 14011G21KT 07/M12 A3016 RMK A01 T00701124  RH  024%=      5-min Rain = 0
KPVS 122255Z 14011G17KT 07/M12 A3016 RMK A01 T00691123  RH  024%=      5-min Rain = 0
KPVS 122300Z 13012G19KT 07/M12 A3016 RMK A01 T00691122  RH  025%=      5-min Rain = 0
KPVS 122305Z 14013G18KT 07/M12 A3016 RMK A01 T00661121  RH  025%=      5-min Rain = 0
KPVS 122310Z 14012KT 07/M12 A3016 RMK A01 T00661121  RH  025%=      5-min Rain = 0
KPVS 122315Z 14014G20KT 06/M12 A3016 RMK A01 T00641120  RH  026%=      5-min Rain = 0
KPVS 122320Z 14012G18KT 06/M12 A3017 RMK A01 T00631119  RH  026%=      5-min Rain = 0
KPVS 122325Z 14014G19KT 06/M12 A3016 RMK A01 T00621119  RH  026%=      5-min Rain = 0
KPVS 122330Z 14011KT 06/M12 A3016 RMK A01 T00611118  RH  027%=      5-min Rain = 0
KPVS 122335Z 14012G17KT 06/M12 A3016 RMK A01 T00601118  RH  027%=      5-min Rain = 0
KPVS 122340Z 14013G18KT 06/M12 A3017 RMK A01 T00581117  RH  028%=      5-min Rain = 0
KPVS 122345Z 14013G18KT 06/M12 A3017 RMK A01 T00561116  RH  028%=      5-min Rain = 0
KPVS 122350Z 14012KT 06/M12 A3017 RMK A01 T00551117  RH  028%=      5-min Rain = 0
KPVS 122355Z 14011KT 05/M12 A3017 RMK A01 T00541116  RH  028%=      5-min Rain = 0
KPVS 130000Z 14014G19KT 05/M12 A3017 RMK A01 T00531116  RH  029%=      5-min Rain = 0
KPVS 130005Z 14011G17KT 05/M12 A3017 RMK A01 T00511115  RH  029%=      5-min Rain = 0
KPVS 130010Z 14013G19KT 05/M11 A3017 RMK A01 T00501114  RH  030%=      5-min Rain = 0
KPVS 130015Z 14012G17KT 05/M11 A3017 RMK A01 T00481113  RH  030%=      5-min Rain = 0
KPVS 130020Z 14011KT 05/M11 A3017 RMK A01 T00471113  RH  031%=      5-min Rain = 0
KPVS 130025Z 14011KT 05/M11 A3018 RMK A01 T00461113  RH  031%=      5-min Rain = 0
KPVS 130030Z 14011KT 05/M11 A3017 RMK A01 T00451114  RH  031%=      5-min Rain = 0
KPVS 130035Z 13010KT 04/M12 A3017 RMK A01 T00441115  RH  031%=      5-min Rain = 0
KPVS 130040Z 13008G13KT 04/M12 A3018 RMK A01 T00421115  RH  031%=      5-min Rain = 0
KPVS 130045Z 13008KT 04/M12 A3018 RMK A01 T00411115  RH  032%=      5-min Rain = 0
KPVS 130050Z 13008G13KT 04/M11 A3018 RMK A01 T00401114  RH  032%=      5-min Rain = 0
KPVS 130055Z 13008KT 04/M11 A3019 RMK A01 T00401113  RH  032%=      5-min Rain = 0
KPVS 130100Z 13009G14KT 04/M11 A3019 RMK A01 T00391112  RH  033%=      5-min Rain = 0
KPVS 130105Z 13009KT 04/M11 A3019 RMK A01 T00381111  RH  033%=      5-min Rain = 0
KPVS 130110Z 14009KT 04/M11 A3019 RMK A01 T00381110  RH  033%=      5-min Rain = 0
KPVS 130115Z 14010KT 04/M11 A3019 RMK A01 T00371109  RH  034%=      5-min Rain = 0
KPVS 130120Z 14009KT 04/M11 A302 RMK A01 T00361109  RH  034%=      5-min Rain = 0
KPVS 130125Z 13010KT 04/M11 A302 RMK A01 T00351109  RH  034%=      5-min Rain = 0
KPVS 130130Z 13009KT 03/M11 A302 RMK A01 T00331109  RH  035%=      5-min Rain = 0
KPVS 130135Z 13008KT 03/M11 A302 RMK A01 T00311110  RH  035%=      5-min Rain = 0
KPVS 130140Z 12008KT 03/M11 A302 RMK A01 T00291109  RH  036%=      5-min Rain = 0
KPVS 130145Z 12008KT 03/M11 A302 RMK A01 T00271109  RH  036%=      5-min Rain = 0
KPVS 130150Z 12009KT 03/M11 A3021 RMK A01 T00261108  RH  037%=      5-min Rain = 0
KPVS 130155Z 12008KT 03/M11 A3021 RMK A01 T00251107  RH  037%=      5-min Rain = 0
KPVS 130200Z 13008KT 02/M11 A3021 RMK A01 T00241107  RH  038%=      5-min Rain = 0
KPVS 130205Z 12008KT 02/M11 A3021 RMK A01 T00221107  RH  038%=      5-min Rain = 0
KPVS 130210Z 12008KT 02/M11 A3022 RMK A01 T00211108  RH  038%=      5-min Rain = 0
KPVS 130215Z 12008KT 02/M11 A3022 RMK A01 T00191107  RH  039%=      5-min Rain = 0
KPVS 130220Z 12007KT 02/M11 A3022 RMK A01 T00171106  RH  040%=      5-min Rain = 0
KPVS 130225Z 12008KT 02/M11 A3022 RMK A01 T00151106  RH  041%=      5-min Rain = 0
KPVS 130230Z 13009KT 01/M11 A3022 RMK A01 T00141105  RH  041%=      5-min Rain = 0
KPVS 130235Z 12007KT 01/M11 A3022 RMK A01 T00131105  RH  041%=      5-min Rain = 0
KPVS 130240Z 11005KT 01/M11 A3023 RMK A01 T00121106  RH  042%=      5-min Rain = 0
KPVS 130245Z 11005KT 01/M11 A3024 RMK A01 T00091106  RH  043%=      5-min Rain = 0
KPVS 130250Z 11005KT 01/M11 A3024 RMK A01 T00061106  RH  043%=      5-min Rain = 0
KPVS 130255Z 11005KT 01/M11 A3023 RMK A01 T00051106  RH  044%=      5-min Rain = 0
KPVS 130300Z 11004KT 00/M11 A3023 RMK A01 T00031108  RH  044%=      5-min Rain = 0
KPVS 130305Z 11005KT 00/11 A3023 RMK A01 T00-00-110  RH  044%=      5-min Rain = 0
KPVS 130310Z 11006KT M00/M11 A3023 RMK A01 T10011109  RH  044%=      5-min Rain = 0
KPVS 130315Z 12007KT M00/M11 A3023 RMK A01 T10011110  RH  044%=      5-min Rain = 0
KPVS 130320Z 13008KT M00/M11 A3023 RMK A01 T10011111  RH  044%=      5-min Rain = 0
KPVS 130325Z 12007KT M00/M11 A3023 RMK A01 T10021113  RH  044%=      5-min Rain = 0
KPVS 130330Z 12006KT M00/M11 A3023 RMK A01 T10031113  RH  044%=      5-min Rain = 0
KPVS 130335Z 12006KT M01/M11 A3023 RMK A01 T10051113  RH  045%=      5-min Rain = 0
KPVS 130340Z 11006KT M01/M11 A3024 RMK A01 T10071113  RH  045%=      5-min Rain = 0
KPVS 130345Z 11006KT M01/M11 A3024 RMK A01 T10091113  RH  046%=      5-min Rain = 0
KPVS 130350Z 11006KT M01/M11 A3024 RMK A01 T10111113  RH  046%=      5-min Rain = 0
KPVS 130355Z 11005KT M01/M11 A3024 RMK A01 T10121114  RH  047%=      5-min Rain = 0
KPVS 130400Z 12008KT M01/M11 A3024 RMK A01 T10131113  RH  047%=      5-min Rain = 0
KPVS 130405Z 12008KT M01/M11 A3023 RMK A01 T10131114  RH  047%=      5-min Rain = 0
KPVS 130410Z 12007KT M02/M11 A3023 RMK A01 T10151114  RH  047%=      5-min Rain = 0
KPVS 130415Z 11008KT M02/M12 A3024 RMK A01 T10171115  RH  048%=      5-min Rain = 0
KPVS 130420Z 12009KT M02/M12 A3023 RMK A01 T10191115  RH  049%=      5-min Rain = 0
KPVS 130425Z 12009KT M02/M11 A3023 RMK A01 T10201114  RH  049%=      5-min Rain = 0
KPVS 130430Z 12010KT M02/M11 A3023 RMK A01 T10191113  RH  049%=      5-min Rain = 0
KPVS 130435Z 11010KT M02/M11 A3023 RMK A01 T10201113  RH  049%=      5-min Rain = 0
KPVS 130440Z 12009KT M02/M11 A3023 RMK A01 T10191112  RH  050%=      5-min Rain = 0
KPVS 130445Z 12008KT M02/M11 A3024 RMK A01 T10171111  RH  050%=      5-min Rain = 0
KPVS 130450Z 12009KT M02/M11 A3024 RMK A01 T10171109  RH  050%=      5-min Rain = 0
KPVS 130455Z 12007KT M02/M11 A3024 RMK A01 T10171108  RH  051%=      5-min Rain = 0
KPVS 130500Z 12007KT M02/M11 A3024 RMK A01 T10181107  RH  051%=      5-min Rain = 0
KPVS 130505Z 13008KT M02/M10 A3024 RMK A01 T10171104  RH  052%=      5-min Rain = 0
KPVS 130510Z 12007KT M02/M10 A3024 RMK A01 T10171103  RH  052%=      5-min Rain = 0
KPVS 130515Z 12007KT M02/M10 A3024 RMK A01 T10171103  RH  053%=      5-min Rain = 0
KPVS 130520Z 11006KT M02/M10 A3024 RMK A01 T10181103  RH  053%=      5-min Rain = 0
KPVS 130525Z 11006KT M02/M10 A3024 RMK A01 T10211104  RH  054%=      5-min Rain = 0
KPVS 130530Z 11005KT M02/M11 A3024 RMK A01 T10241105  RH  055%=      5-min Rain = 0
KPVS 130535Z 11006KT M02/M10 A3024 RMK A01 T10231104  RH  055%=      5-min Rain = 0
KPVS 130540Z 12007KT M02/M10 A3023 RMK A01 T10231104  RH  054%=      5-min Rain = 0
KPVS 130545Z 11007KT M02/M10 A3023 RMK A01 T10221104  RH  054%=      5-min Rain = 0
KPVS 130550Z 10005KT M02/M11 A3024 RMK A01 T10241106  RH  054%=      5-min Rain = 0
KPVS 130555Z 10005KT M03/M11 A3024 RMK A01 T10271107  RH  055%=      5-min Rain = 0

Page generated in 0.0286 seconds.